createdAt,value
2022-08-31T00:00:33.574Z,0.70
2022-08-31T00:05:36.455Z,1.00
2022-08-31T00:10:42.834Z,0.80
2022-08-31T00:15:48.075Z,1.10
2022-08-31T00:20:51.103Z,0.90
2022-08-31T00:25:55.314Z,1.02
2022-08-31T00:30:58.146Z,0.80
2022-08-31T00:36:00.953Z,1.05
2022-08-31T00:41:05.789Z,0.80
2022-08-31T00:46:10.802Z,1.10
2022-08-31T00:51:15.262Z,0.90
2022-08-31T00:56:23.753Z,1.00
2022-08-31T01:01:27.996Z,0.90
2022-08-31T01:06:30.975Z,1.00
2022-08-31T01:11:36.901Z,1.00
2022-08-31T01:16:44.929Z,1.02
2022-08-31T01:21:56.206Z,0.87
2022-08-31T01:27:04.730Z,1.00
2022-08-31T01:32:09.047Z,0.90
2022-08-31T01:37:12.634Z,1.20
2022-08-31T01:42:17.797Z,0.90
2022-08-31T01:47:21.133Z,0.98
2022-08-31T01:52:28.426Z,1.23
2022-08-31T01:57:34.124Z,1.20
2022-08-31T02:02:37.588Z,1.13
2022-08-31T02:07:40.474Z,1.20
2022-08-31T02:12:44.894Z,1.10
2022-08-31T02:17:47.703Z,1.10
2022-08-31T02:22:55.704Z,1.17
2022-08-31T02:27:59.866Z,1.23
2022-08-31T02:33:02.698Z,1.00
2022-08-31T02:38:05.703Z,1.23
2022-08-31T02:43:16.469Z,1.43
2022-08-31T02:48:27.537Z,1.43
2022-08-31T02:53:30.348Z,1.25
2022-08-31T02:58:35.048Z,1.30
2022-08-31T03:03:38.763Z,1.47
2022-08-31T03:08:42.278Z,1.50
2022-08-31T03:13:46.543Z,1.08
2022-08-31T03:18:49.818Z,1.10
2022-08-31T03:23:52.674Z,1.25
2022-08-31T03:28:57.101Z,1.30
2022-08-31T03:34:00.271Z,1.50
2022-08-31T03:39:03.125Z,1.50
2022-08-31T03:44:07.528Z,1.80
2022-08-31T03:49:12.467Z,1.20
2022-08-31T03:54:15.370Z,1.00
2022-08-31T03:59:19.574Z,1.20
2022-08-31T04:04:22.625Z,1.30
2022-08-31T04:09:25.952Z,1.10
2022-08-31T04:14:30.193Z,1.50
2022-08-31T04:19:33.079Z,1.60
2022-08-31T04:24:36.198Z,1.37
2022-08-31T04:29:40.559Z,1.53
2022-08-31T04:34:43.361Z,1.95
2022-08-31T04:39:50.838Z,1.80
2022-08-31T04:44:56.596Z,1.50
2022-08-31T04:49:59.555Z,1.63
2022-08-31T04:55:03.186Z,1.60
2022-08-31T05:00:08.959Z,1.83
2022-08-31T05:05:12.335Z,1.80
2022-08-31T05:10:15.327Z,1.70
2022-08-31T05:15:19.660Z,1.33
2022-08-31T05:20:22.471Z,1.37
2022-08-31T05:25:25.322Z,1.45
2022-08-31T05:30:29.500Z,1.80
2022-08-31T05:35:32.319Z,2.80
2022-08-31T05:40:35.243Z,2.30
2022-08-31T05:45:43.498Z,2.30
2022-08-31T05:50:46.304Z,2.40
2022-08-31T05:55:50.366Z,2.30
2022-08-31T06:00:54.515Z,1.35
2022-08-31T06:05:57.363Z,2.40
2022-08-31T06:11:00.701Z,2.10
2022-08-31T06:16:06.936Z,2.00
2022-08-31T06:21:12.678Z,2.60
2022-08-31T06:26:17.582Z,2.47
2022-08-31T06:31:26.649Z,2.30
2022-08-31T06:36:32.157Z,1.60
2022-08-31T06:41:37.291Z,1.63
2022-08-31T06:46:47.040Z,1.80
2022-08-31T06:51:51.257Z,1.23
2022-08-31T06:56:54.085Z,1.00
2022-08-31T07:01:59.109Z,1.10
2022-08-31T07:07:02.193Z,1.00
2022-08-31T07:12:06.614Z,1.40
2022-08-31T07:17:10.763Z,0.90
2022-08-31T07:22:15.481Z,0.90
2022-08-31T07:27:18.575Z,1.00
2022-08-31T07:32:22.874Z,0.90
2022-08-31T07:37:43.360Z,0.70
2022-08-31T07:42:47.763Z,0.60
2022-08-31T07:47:52.699Z,0.60
2022-08-31T07:52:57.984Z,0.73
2022-08-31T07:58:00.874Z,0.82
2022-08-31T08:03:08.205Z,0.82
2022-08-31T08:08:13.541Z,0.70
2022-08-31T08:13:19.613Z,0.82
2022-08-31T08:18:23.897Z,2.47
2022-08-31T08:23:28.603Z,0.70
2022-08-31T08:28:40.854Z,0.50
2022-08-31T08:33:46.289Z,0.70
2022-08-31T08:38:53.981Z,0.60
2022-08-31T08:44:00.630Z,0.73
2022-08-31T08:49:14.981Z,0.80
2022-08-31T08:54:27.406Z,0.70
2022-08-31T08:59:30.544Z,0.70
2022-08-31T09:05:01.975Z,0.60
2022-08-31T09:10:11.959Z,0.68
2022-08-31T09:15:36.499Z,0.80
2022-08-31T09:20:41.351Z,0.60
2022-08-31T09:25:52.187Z,0.77
2022-08-31T09:30:56.095Z,0.70
2022-08-31T09:41:36.510Z,0.67
2022-08-31T09:46:48.877Z,0.80
2022-08-31T09:51:52.218Z,0.60
2022-08-31T09:56:58.068Z,0.70
2022-08-31T10:02:02.518Z,0.70
2022-08-31T10:07:19.543Z,0.70
2022-08-31T10:12:26.263Z,0.60
2022-08-31T10:17:38.043Z,0.80
2022-08-31T10:22:45.087Z,0.77
2022-08-31T10:27:55.955Z,0.77
2022-08-31T10:33:06.587Z,0.60
2022-08-31T10:38:26.105Z,0.60
2022-08-31T10:43:35.498Z,0.80
2022-08-31T10:48:54.562Z,0.70
2022-08-31T10:54:07.928Z,0.77
2022-08-31T10:59:21.768Z,0.60
2022-08-31T11:05:03.484Z,0.80
2022-08-31T11:10:19.895Z,0.60
2022-08-31T11:15:51.612Z,0.80
2022-08-31T11:21:09.910Z,0.88
2022-08-31T11:26:42.075Z,0.60
2022-08-31T11:31:46.914Z,0.80
2022-08-31T11:36:52.489Z,0.77
2022-08-31T11:41:59.118Z,0.73
2022-08-31T11:47:08.123Z,0.70
2022-08-31T11:52:29.444Z,0.70
2022-08-31T11:57:37.651Z,0.87
2022-08-31T12:02:45.900Z,0.70
2022-08-31T12:07:49.771Z,0.80
2022-08-31T12:13:19.950Z,0.70
2022-08-31T12:18:41.133Z,0.70
2022-08-31T12:23:56.382Z,0.60
2022-08-31T12:29:20.781Z,0.70
2022-08-31T12:34:25.087Z,0.70
2022-08-31T12:39:30.400Z,0.70
2022-08-31T12:44:39.797Z,0.80
2022-08-31T12:50:05.659Z,0.73
2022-08-31T12:55:34.754Z,0.70
2022-08-31T13:00:39.950Z,0.70
2022-08-31T13:05:59.349Z,1.00
2022-08-31T13:11:23.009Z,0.90
2022-08-31T13:16:27.407Z,0.90
2022-08-31T13:21:32.540Z,0.85
2022-08-31T13:26:38.488Z,0.80
2022-08-31T13:31:49.547Z,0.70
2022-08-31T13:36:58.325Z,0.90
2022-08-31T13:42:08.916Z,0.80
2022-08-31T13:47:17.711Z,2.17
2022-08-31T13:52:26.215Z,1.00
2022-08-31T13:57:34.919Z,0.70
2022-08-31T14:02:39.547Z,1.50
2022-08-31T14:08:02.357Z,1.20
2022-08-31T14:13:12.024Z,0.88
2022-08-31T14:18:24.717Z,0.73
2022-08-31T14:23:32.734Z,0.90
2022-08-31T14:28:43.869Z,0.80
2022-08-31T14:33:50.119Z,0.80
2022-08-31T14:38:55.244Z,0.90
2022-08-31T14:44:09.363Z,0.80
2022-08-31T14:49:12.287Z,0.95
2022-08-31T14:54:17.965Z,0.83
2022-08-31T14:59:21.840Z,0.80
2022-08-31T15:04:25.151Z,0.70
2022-08-31T15:09:29.389Z,0.80
2022-08-31T15:14:37.915Z,0.65
2022-08-31T15:19:44.810Z,0.88
2022-08-31T15:24:50.031Z,0.80
2022-08-31T15:30:01.327Z,0.97
2022-08-31T15:35:04.251Z,0.80
2022-08-31T15:40:11.133Z,1.02
2022-08-31T15:45:14.038Z,0.90
2022-08-31T15:50:19.553Z,1.20
2022-08-31T15:55:26.539Z,1.00
2022-08-31T16:00:32.622Z,1.10
2022-08-31T16:05:39.160Z,0.90
2022-08-31T16:10:46.211Z,1.05
2022-08-31T16:15:51.092Z,0.90
2022-08-31T16:20:53.971Z,2.70
2022-08-31T16:25:59.179Z,2.45
2022-08-31T16:31:02.685Z,4.28
2022-08-31T16:36:06.638Z,4.87
2022-08-31T16:41:11.859Z,1.38
2022-08-31T16:46:39.702Z,0.85
2022-08-31T16:51:39.217Z,0.80
2022-08-31T16:56:51.238Z,1.00
2022-08-31T17:01:55.897Z,0.80
2022-08-31T17:06:58.838Z,0.87
2022-08-31T17:12:07.552Z,0.97
2022-08-31T17:17:12.495Z,1.20
2022-08-31T17:22:24.572Z,0.90
2022-08-31T17:27:33.517Z,0.90
2022-08-31T17:32:39.439Z,0.90
2022-08-31T17:37:48.624Z,0.88
2022-08-31T17:42:55.943Z,1.10
2022-08-31T17:48:02.482Z,0.90
2022-08-31T17:53:05.380Z,0.90
2022-08-31T17:58:09.755Z,1.13
2022-08-31T18:03:12.622Z,1.00
2022-08-31T18:08:16.133Z,1.20
2022-08-31T18:13:21.397Z,1.17
2022-08-31T18:18:27.295Z,1.00
2022-08-31T18:23:30.107Z,1.00
2022-08-31T18:28:34.254Z,1.00
2022-08-31T18:33:38.091Z,1.30
2022-08-31T18:38:40.899Z,1.27
2022-08-31T18:44:02.761Z,1.05
2022-08-31T18:49:12.092Z,1.10
2022-08-31T18:54:16.039Z,1.10
2022-08-31T18:59:21.365Z,1.10
2022-08-31T19:04:24.188Z,0.93
2022-08-31T19:09:26.976Z,1.10
2022-08-31T19:14:33.309Z,1.30
2022-08-31T19:19:38.004Z,1.10
2022-08-31T19:24:41.139Z,1.37
2022-08-31T19:29:45.302Z,1.23
2022-08-31T19:34:49.582Z,1.10
2022-08-31T19:39:52.929Z,1.20
2022-08-31T19:50:22.088Z,1.10
2022-08-31T19:55:24.898Z,1.30
2022-08-31T20:00:29.809Z,1.17
2022-08-31T20:05:32.621Z,1.10
2022-08-31T20:10:41.769Z,1.25
2022-08-31T20:15:46.102Z,1.27
2022-08-31T20:20:50.980Z,1.50
2022-08-31T20:25:54.129Z,1.30
2022-08-31T20:31:00.117Z,1.40
2022-08-31T20:36:05.881Z,1.20
2022-08-31T20:41:09.356Z,1.33
2022-08-31T20:46:34.483Z,1.70
2022-08-31T20:51:40.976Z,1.50
2022-08-31T20:56:44.263Z,1.45
2022-08-31T21:01:51.896Z,1.70
2022-08-31T21:06:54.734Z,2.00
2022-08-31T21:11:59.598Z,1.70
2022-08-31T21:17:06.159Z,2.08
2022-08-31T21:22:10.921Z,2.03
2022-08-31T21:27:16.919Z,2.10
2022-08-31T21:32:21.191Z,2.20
2022-08-31T21:37:24.211Z,2.08
2022-08-31T21:42:27.092Z,1.97
2022-08-31T21:47:31.278Z,2.40
2022-08-31T21:52:34.086Z,1.90
2022-08-31T21:57:37.165Z,2.30
2022-08-31T22:02:42.849Z,2.30
2022-08-31T22:07:48.923Z,2.22
2022-08-31T22:12:51.757Z,2.20
2022-08-31T22:18:17.903Z,2.40
2022-08-31T22:23:18.843Z,2.25
2022-08-31T22:28:22.807Z,2.20
2022-08-31T22:33:26.983Z,2.10
2022-08-31T22:38:29.852Z,2.10
2022-08-31T22:43:32.795Z,1.90
2022-08-31T22:48:37.077Z,2.20
2022-08-31T22:53:40.930Z,2.33
2022-08-31T22:58:44.277Z,2.28
2022-08-31T23:03:51.064Z,2.60
2022-08-31T23:08:56.104Z,2.80
2022-08-31T23:14:04.091Z,2.60
2022-08-31T23:19:15.085Z,2.50
2022-08-31T23:24:22.139Z,2.30
2022-08-31T23:29:26.985Z,2.65
2022-08-31T23:34:33.908Z,2.53
2022-08-31T23:39:38.654Z,2.50
2022-08-31T23:44:43.630Z,2.60
2022-08-31T23:49:51.235Z,3.05
2022-08-31T23:54:59.587Z,2.73
